Chlef Aboubakr Belkaid International Airport

METAR DAAG TAF DAAG
12 °C
°C
-
°C
30m
Wiek
11:29:57
LT
10:29
UTC
0 ft

1.000

2.000

3.000

4.000

5.000

FEW 2.300
SCT 3.600
VFR
<?= Yii::t('app', 'Wind direction') ?> <?= Yii::t('app', 'of'); ?>
220°
18:16
Zachód słońca
77%
Wilgotność
Siła wiatru
Zamknięte/Śnieg
Zasięg wzroku na RWY
Stan RWY
Widzialność pionowa
Min. widoczność
CAVOK
Trend
Korekta
Raport specjalny
1032 hPa
QNH
METAR DAAG 051000Z 22006KT 9999 FEW023 SCT036 12/08 Q1032
Rozproszone chmury
3 kt
3 kt
11:00
VFR
2 kt
12:00
VFR
2 kt
13:00
VFR
10 kt
14:00
VFR
10 kt
15:00
VFR
10 kt
16:00
VFR
10 kt
17:00
VFR
10 kt
10 km+
Widoczność
Brak
Sufit
6 kt
Wiatr
metar-taf.com/DAOI

Metar-Taf.com

Dekoder wizualny

My i strony trzecie śledzimy Twoje zachowanie internetowe na naszej stronie za pomocą plików cookie. Jeśli kontynuujesz, zakładamy, że zgadzasz się z naszymi polityka plików cookie.